sensor_id;sensor_type;location;lat;lon;timestamp;P1;durP1;ratioP1;P2;durP2;ratioP2
50350;SDS011;36250;48.740;22.174;2022-12-29T00:02:01;20.73;;;12.98;;
50350;SDS011;36250;48.740;22.174;2022-12-29T00:04:27;22.25;;;12.73;;
50350;SDS011;36250;48.740;22.174;2022-12-29T00:06:52;17.33;;;11.57;;
50350;SDS011;36250;48.740;22.174;2022-12-29T00:09:18;22.77;;;11.85;;
50350;SDS011;36250;48.740;22.174;2022-12-29T00:11:44;21.40;;;12.98;;
50350;SDS011;36250;48.740;22.174;2022-12-29T00:14:10;20.73;;;12.68;;
50350;SDS011;36250;48.740;22.174;2022-12-29T00:16:54;23.95;;;13.50;;
50350;SDS011;36250;48.740;22.174;2022-12-29T00:19:20;22.08;;;12.52;;
50350;SDS011;36250;48.740;22.174;2022-12-29T00:22:03;26.80;;;13.50;;
50350;SDS011;36250;48.740;22.174;2022-12-29T00:24:47;27.15;;;14.45;;
50350;SDS011;36250;48.740;22.174;2022-12-29T00:27:31;21.38;;;12.65;;
50350;SDS011;36250;48.740;22.174;2022-12-29T00:30:22;21.30;;;12.82;;
50350;SDS011;36250;48.740;22.174;2022-12-29T00:33:49;24.35;;;14.15;;
50350;SDS011;36250;48.740;22.174;2022-12-29T00:36:16;27.95;;;14.07;;
50350;SDS011;36250;48.740;22.174;2022-12-29T00:38:51;23.42;;;13.82;;
50350;SDS011;36250;48.740;22.174;2022-12-29T00:41:38;25.73;;;13.85;;
50350;SDS011;36250;48.740;22.174;2022-12-29T00:44:22;26.67;;;13.13;;
50350;SDS011;36250;48.740;22.174;2022-12-29T00:46:47;21.80;;;12.90;;
50350;SDS011;36250;48.740;22.174;2022-12-29T00:49:13;24.65;;;13.43;;
50350;SDS011;36250;48.740;22.174;2022-12-29T00:52:04;23.70;;;13.05;;
50350;SDS011;36250;48.740;22.174;2022-12-29T00:54:34;21.90;;;13.25;;
50350;SDS011;36250;48.740;22.174;2022-12-29T00:57:02;19.95;;;12.82;;
50350;SDS011;36250;48.740;22.174;2022-12-29T00:59:28;25.20;;;14.52;;
50350;SDS011;36250;48.740;22.174;2022-12-29T01:01:54;24.77;;;13.55;;
50350;SDS011;36250;48.740;22.174;2022-12-29T01:04:21;21.73;;;13.25;;
50350;SDS011;36250;48.740;22.174;2022-12-29T01:06:47;19.50;;;12.73;;
50350;SDS011;36250;48.740;22.174;2022-12-29T01:09:13;21.70;;;12.07;;
50350;SDS011;36250;48.740;22.174;2022-12-29T01:11:58;19.98;;;11.85;;
50350;SDS011;36250;48.740;22.174;2022-12-29T01:14:24;21.13;;;12.93;;
50350;SDS011;36250;48.740;22.174;2022-12-29T01:16:50;25.25;;;12.90;;
50350;SDS011;36250;48.740;22.174;2022-12-29T01:19:16;25.65;;;13.70;;
50350;SDS011;36250;48.740;22.174;2022-12-29T01:21:42;23.45;;;14.30;;
50350;SDS011;36250;48.740;22.174;2022-12-29T01:24:07;27.70;;;13.65;;
50350;SDS011;36250;48.740;22.174;2022-12-29T01:26:33;25.13;;;14.60;;
50350;SDS011;36250;48.740;22.174;2022-12-29T01:28:59;20.85;;;13.60;;
50350;SDS011;36250;48.740;22.174;2022-12-29T01:31:24;24.63;;;14.02;;
50350;SDS011;36250;48.740;22.174;2022-12-29T01:33:49;26.60;;;14.02;;
50350;SDS011;36250;48.740;22.174;2022-12-29T01:36:15;24.38;;;12.68;;
50350;SDS011;36250;48.740;22.174;2022-12-29T01:38:43;25.80;;;13.63;;
50350;SDS011;36250;48.740;22.174;2022-12-29T01:41:10;29.95;;;16.45;;
50350;SDS011;36250;48.740;22.174;2022-12-29T01:43:41;34.83;;;17.27;;
50350;SDS011;36250;48.740;22.174;2022-12-29T01:48:39;38.13;;;19.13;;
50350;SDS011;36250;48.740;22.174;2022-12-29T01:51:05;41.42;;;20.83;;
50350;SDS011;36250;48.740;22.174;2022-12-29T01:53:31;44.45;;;23.88;;
50350;SDS011;36250;48.740;22.174;2022-12-29T01:56:00;45.33;;;21.80;;
50350;SDS011;36250;48.740;22.174;2022-12-29T01:58:30;32.63;;;18.08;;
50350;SDS011;36250;48.740;22.174;2022-12-29T02:01:01;33.17;;;18.55;;
50350;SDS011;36250;48.740;22.174;2022-12-29T02:03:27;28.65;;;15.45;;
50350;SDS011;36250;48.740;22.174;2022-12-29T02:06:02;24.35;;;15.88;;
50350;SDS011;36250;48.740;22.174;2022-12-29T02:08:29;25.67;;;14.70;;
50350;SDS011;36250;48.740;22.174;2022-12-29T02:10:55;26.38;;;16.25;;
50350;SDS011;36250;48.740;22.174;2022-12-29T02:13:23;31.80;;;17.33;;
50350;SDS011;36250;48.740;22.174;2022-12-29T02:18:40;36.35;;;18.73;;
50350;SDS011;36250;48.740;22.174;2022-12-29T02:26:49;40.80;;;19.50;;
50350;SDS011;36250;48.740;22.174;2022-12-29T02:37:51;20.48;;;13.32;;
50350;SDS011;36250;48.740;22.174;2022-12-29T02:40:25;28.80;;;14.50;;
50350;SDS011;36250;48.740;22.174;2022-12-29T02:43:04;22.02;;;13.90;;
50350;SDS011;36250;48.740;22.174;2022-12-29T02:45:46;23.17;;;14.07;;
50350;SDS011;36250;48.740;22.174;2022-12-29T02:48:20;24.13;;;13.50;;
50350;SDS011;36250;48.740;22.174;2022-12-29T02:51:00;25.00;;;14.02;;
50350;SDS011;36250;48.740;22.174;2022-12-29T02:53:29;28.30;;;14.98;;
50350;SDS011;36250;48.740;22.174;2022-12-29T02:56:16;33.25;;;15.82;;
50350;SDS011;36250;48.740;22.174;2022-12-29T02:58:42;30.42;;;15.95;;
50350;SDS011;36250;48.740;22.174;2022-12-29T03:06:43;29.67;;;16.70;;
50350;SDS011;36250;48.740;22.174;2022-12-29T03:09:26;23.63;;;13.35;;
50350;SDS011;36250;48.740;22.174;2022-12-29T03:15:22;41.40;;;21.85;;
50350;SDS011;36250;48.740;22.174;2022-12-29T03:18:19;52.10;;;24.52;;
50350;SDS011;36250;48.740;22.174;2022-12-29T03:20:50;42.35;;;21.90;;
50350;SDS011;36250;48.740;22.174;2022-12-29T03:23:23;43.40;;;20.75;;
50350;SDS011;36250;48.740;22.174;2022-12-29T03:25:52;39.40;;;19.05;;
50350;SDS011;36250;48.740;22.174;2022-12-29T03:28:22;59.35;;;30.95;;
50350;SDS011;36250;48.740;22.174;2022-12-29T03:30:51;50.78;;;26.50;;
50350;SDS011;36250;48.740;22.174;2022-12-29T03:33:18;37.92;;;19.80;;
50350;SDS011;36250;48.740;22.174;2022-12-29T03:35:48;31.73;;;18.95;;
50350;SDS011;36250;48.740;22.174;2022-12-29T03:38:17;33.60;;;19.05;;
50350;SDS011;36250;48.740;22.174;2022-12-29T03:40:51;33.17;;;16.67;;
50350;SDS011;36250;48.740;22.174;2022-12-29T03:43:20;29.77;;;17.52;;
50350;SDS011;36250;48.740;22.174;2022-12-29T03:45:46;34.55;;;18.40;;
50350;SDS011;36250;48.740;22.174;2022-12-29T03:48:12;32.47;;;18.38;;
50350;SDS011;36250;48.740;22.174;2022-12-29T03:50:37;30.88;;;17.92;;
50350;SDS011;36250;48.740;22.174;2022-12-29T03:53:02;31.90;;;17.90;;
50350;SDS011;36250;48.740;22.174;2022-12-29T03:55:28;34.25;;;19.15;;
50350;SDS011;36250;48.740;22.174;2022-12-29T03:57:53;38.28;;;20.73;;
50350;SDS011;36250;48.740;22.174;2022-12-29T04:00:19;35.75;;;20.13;;
50350;SDS011;36250;48.740;22.174;2022-12-29T04:02:44;34.42;;;19.23;;
50350;SDS011;36250;48.740;22.174;2022-12-29T04:05:09;31.00;;;18.25;;
50350;SDS011;36250;48.740;22.174;2022-12-29T04:07:35;30.95;;;18.45;;
50350;SDS011;36250;48.740;22.174;2022-12-29T04:10:00;33.50;;;18.17;;
50350;SDS011;36250;48.740;22.174;2022-12-29T04:12:25;32.05;;;18.25;;
50350;SDS011;36250;48.740;22.174;2022-12-29T04:14:51;34.67;;;18.00;;
50350;SDS011;36250;48.740;22.174;2022-12-29T04:17:16;59.45;;;37.75;;
50350;SDS011;36250;48.740;22.174;2022-12-29T04:19:41;35.88;;;22.30;;
50350;SDS011;36250;48.740;22.174;2022-12-29T04:22:06;29.02;;;17.02;;
50350;SDS011;36250;48.740;22.174;2022-12-29T04:24:32;42.85;;;26.73;;
50350;SDS011;36250;48.740;22.174;2022-12-29T04:26:57;40.80;;;22.23;;
50350;SDS011;36250;48.740;22.174;2022-12-29T04:29:22;43.92;;;23.65;;
50350;SDS011;36250;48.740;22.174;2022-12-29T04:31:48;38.28;;;22.33;;
50350;SDS011;36250;48.740;22.174;2022-12-29T04:34:13;46.15;;;21.70;;
50350;SDS011;36250;48.740;22.174;2022-12-29T04:36:38;42.15;;;20.80;;
50350;SDS011;36250;48.740;22.174;2022-12-29T04:39:05;43.50;;;23.40;;
50350;SDS011;36250;48.740;22.174;2022-12-29T04:41:30;49.38;;;24.25;;
50350;SDS011;36250;48.740;22.174;2022-12-29T04:43:56;42.30;;;22.38;;
50350;SDS011;36250;48.740;22.174;2022-12-29T04:46:21;50.10;;;22.75;;
50350;SDS011;36250;48.740;22.174;2022-12-29T04:48:47;49.60;;;21.75;;
50350;SDS011;36250;48.740;22.174;2022-12-29T04:51:12;42.10;;;21.75;;
50350;SDS011;36250;48.740;22.174;2022-12-29T04:53:37;39.55;;;21.10;;
50350;SDS011;36250;48.740;22.174;2022-12-29T04:56:03;37.38;;;20.17;;
50350;SDS011;36250;48.740;22.174;2022-12-29T04:58:29;43.25;;;23.23;;
50350;SDS011;36250;48.740;22.174;2022-12-29T05:00:54;42.60;;;21.30;;
50350;SDS011;36250;48.740;22.174;2022-12-29T05:03:20;34.38;;;20.20;;
50350;SDS011;36250;48.740;22.174;2022-12-29T05:05:45;41.38;;;20.63;;
50350;SDS011;36250;48.740;22.174;2022-12-29T05:08:10;45.33;;;21.88;;
50350;SDS011;36250;48.740;22.174;2022-12-29T05:10:36;47.00;;;22.38;;
50350;SDS011;36250;48.740;22.174;2022-12-29T05:13:01;44.33;;;21.67;;
50350;SDS011;36250;48.740;22.174;2022-12-29T05:15:26;55.80;;;25.77;;
50350;SDS011;36250;48.740;22.174;2022-12-29T05:20:41;45.60;;;22.05;;
50350;SDS011;36250;48.740;22.174;2022-12-29T05:23:07;45.85;;;22.15;;
50350;SDS011;36250;48.740;22.174;2022-12-29T05:25:32;40.72;;;21.70;;
50350;SDS011;36250;48.740;22.174;2022-12-29T05:27:57;42.72;;;22.27;;
50350;SDS011;36250;48.740;22.174;2022-12-29T05:30:23;43.90;;;23.02;;
50350;SDS011;36250;48.740;22.174;2022-12-29T05:32:48;37.72;;;20.33;;
50350;SDS011;36250;48.740;22.174;2022-12-29T05:35:14;35.78;;;20.10;;
50350;SDS011;36250;48.740;22.174;2022-12-29T05:37:39;37.28;;;19.98;;
50350;SDS011;36250;48.740;22.174;2022-12-29T05:40:05;35.58;;;19.13;;
50350;SDS011;36250;48.740;22.174;2022-12-29T05:42:31;33.03;;;18.92;;
50350;SDS011;36250;48.740;22.174;2022-12-29T05:44:56;37.92;;;20.67;;
50350;SDS011;36250;48.740;22.174;2022-12-29T05:47:21;34.13;;;20.02;;
50350;SDS011;36250;48.740;22.174;2022-12-29T05:49:47;28.73;;;16.88;;
50350;SDS011;36250;48.740;22.174;2022-12-29T05:55:11;25.15;;;14.82;;
50350;SDS011;36250;48.740;22.174;2022-12-29T05:57:37;21.08;;;12.23;;
50350;SDS011;36250;48.740;22.174;2022-12-29T06:00:03;17.23;;;11.02;;
50350;SDS011;36250;48.740;22.174;2022-12-29T06:02:30;20.23;;;11.75;;
50350;SDS011;36250;48.740;22.174;2022-12-29T06:04:55;18.30;;;9.73;;
50350;SDS011;36250;48.740;22.174;2022-12-29T06:07:21;17.55;;;10.32;;
50350;SDS011;36250;48.740;22.174;2022-12-29T06:09:46;14.82;;;9.90;;
50350;SDS011;36250;48.740;22.174;2022-12-29T06:12:11;17.40;;;9.32;;
50350;SDS011;36250;48.740;22.174;2022-12-29T06:14:37;15.65;;;9.18;;
50350;SDS011;36250;48.740;22.174;2022-12-29T06:17:02;26.80;;;10.27;;
50350;SDS011;36250;48.740;22.174;2022-12-29T06:19:28;18.27;;;10.07;;
50350;SDS011;36250;48.740;22.174;2022-12-29T06:21:53;24.20;;;13.55;;
50350;SDS011;36250;48.740;22.174;2022-12-29T06:24:18;25.60;;;13.30;;
50350;SDS011;36250;48.740;22.174;2022-12-29T06:26:44;17.30;;;11.18;;
50350;SDS011;36250;48.740;22.174;2022-12-29T06:29:09;18.73;;;9.80;;
50350;SDS011;36250;48.740;22.174;2022-12-29T06:31:35;15.00;;;10.63;;
50350;SDS011;36250;48.740;22.174;2022-12-29T06:34:00;18.30;;;10.48;;
50350;SDS011;36250;48.740;22.174;2022-12-29T06:36:26;16.73;;;9.27;;
50350;SDS011;36250;48.740;22.174;2022-12-29T06:38:51;12.60;;;8.50;;
50350;SDS011;36250;48.740;22.174;2022-12-29T06:41:20;13.88;;;9.43;;
50350;SDS011;36250;48.740;22.174;2022-12-29T06:43:45;16.70;;;9.80;;
50350;SDS011;36250;48.740;22.174;2022-12-29T06:46:11;19.85;;;9.95;;
50350;SDS011;36250;48.740;22.174;2022-12-29T06:48:36;15.27;;;9.43;;
50350;SDS011;36250;48.740;22.174;2022-12-29T06:51:01;17.55;;;10.77;;
50350;SDS011;36250;48.740;22.174;2022-12-29T06:53:27;21.02;;;10.05;;
50350;SDS011;36250;48.740;22.174;2022-12-29T06:55:52;16.70;;;8.93;;
50350;SDS011;36250;48.740;22.174;2022-12-29T06:58:18;13.80;;;9.57;;
50350;SDS011;36250;48.740;22.174;2022-12-29T07:00:43;15.63;;;9.68;;
50350;SDS011;36250;48.740;22.174;2022-12-29T07:03:08;19.20;;;9.52;;
50350;SDS011;36250;48.740;22.174;2022-12-29T07:05:34;16.48;;;9.77;;
50350;SDS011;36250;48.740;22.174;2022-12-29T07:07:59;17.77;;;9.88;;
50350;SDS011;36250;48.740;22.174;2022-12-29T07:10:25;20.77;;;11.57;;
50350;SDS011;36250;48.740;22.174;2022-12-29T07:12:51;26.50;;;17.50;;
50350;SDS011;36250;48.740;22.174;2022-12-29T07:15:16;17.83;;;12.25;;
50350;SDS011;36250;48.740;22.174;2022-12-29T07:17:41;21.75;;;13.27;;
50350;SDS011;36250;48.740;22.174;2022-12-29T07:20:07;17.75;;;11.38;;
50350;SDS011;36250;48.740;22.174;2022-12-29T07:22:33;19.67;;;10.90;;
50350;SDS011;36250;48.740;22.174;2022-12-29T07:24:58;20.15;;;12.85;;
50350;SDS011;36250;48.740;22.174;2022-12-29T07:27:23;27.85;;;18.02;;
50350;SDS011;36250;48.740;22.174;2022-12-29T07:29:49;36.42;;;21.25;;
50350;SDS011;36250;48.740;22.174;2022-12-29T07:32:14;22.70;;;14.43;;
50350;SDS011;36250;48.740;22.174;2022-12-29T07:34:40;20.25;;;14.07;;
50350;SDS011;36250;48.740;22.174;2022-12-29T07:37:05;30.48;;;22.10;;
50350;SDS011;36250;48.740;22.174;2022-12-29T07:39:31;14.30;;;8.98;;
50350;SDS011;36250;48.740;22.174;2022-12-29T07:41:56;40.75;;;23.92;;
50350;SDS011;36250;48.740;22.174;2022-12-29T07:44:21;43.97;;;26.73;;
50350;SDS011;36250;48.740;22.174;2022-12-29T07:46:47;28.15;;;16.75;;
50350;SDS011;36250;48.740;22.174;2022-12-29T07:49:12;28.98;;;17.60;;
50350;SDS011;36250;48.740;22.174;2022-12-29T07:51:37;28.58;;;20.13;;
50350;SDS011;36250;48.740;22.174;2022-12-29T07:54:03;22.70;;;14.63;;
50350;SDS011;36250;48.740;22.174;2022-12-29T07:56:28;21.88;;;14.20;;
50350;SDS011;36250;48.740;22.174;2022-12-29T07:58:54;21.27;;;13.95;;
50350;SDS011;36250;48.740;22.174;2022-12-29T08:01:19;14.60;;;9.40;;
50350;SDS011;36250;48.740;22.174;2022-12-29T08:03:44;18.35;;;10.15;;
50350;SDS011;36250;48.740;22.174;2022-12-29T08:06:10;12.10;;;8.27;;
50350;SDS011;36250;48.740;22.174;2022-12-29T08:08:36;14.68;;;9.50;;
50350;SDS011;36250;48.740;22.174;2022-12-29T08:11:01;15.23;;;9.65;;
50350;SDS011;36250;48.740;22.174;2022-12-29T08:13:26;17.98;;;9.48;;
50350;SDS011;36250;48.740;22.174;2022-12-29T08:15:52;20.77;;;9.85;;
50350;SDS011;36250;48.740;22.174;2022-12-29T08:18:17;13.05;;;8.50;;
50350;SDS011;36250;48.740;22.174;2022-12-29T08:20:42;18.38;;;10.02;;
50350;SDS011;36250;48.740;22.174;2022-12-29T08:23:08;13.73;;;9.65;;
50350;SDS011;36250;48.740;22.174;2022-12-29T08:25:33;15.13;;;10.40;;
50350;SDS011;36250;48.740;22.174;2022-12-29T08:27:58;15.23;;;10.43;;
50350;SDS011;36250;48.740;22.174;2022-12-29T08:30:24;14.85;;;9.60;;
50350;SDS011;36250;48.740;22.174;2022-12-29T08:32:49;15.52;;;10.52;;
50350;SDS011;36250;48.740;22.174;2022-12-29T08:35:14;19.63;;;10.15;;
50350;SDS011;36250;48.740;22.174;2022-12-29T08:37:40;15.77;;;8.95;;
50350;SDS011;36250;48.740;22.174;2022-12-29T08:40:05;15.65;;;9.05;;
50350;SDS011;36250;48.740;22.174;2022-12-29T08:42:31;14.27;;;9.50;;
50350;SDS011;36250;48.740;22.174;2022-12-29T08:44:58;27.63;;;14.38;;
50350;SDS011;36250;48.740;22.174;2022-12-29T08:47:23;16.30;;;10.57;;
50350;SDS011;36250;48.740;22.174;2022-12-29T08:49:49;101.40;;;64.35;;
50350;SDS011;36250;48.740;22.174;2022-12-29T08:52:14;31.00;;;18.95;;
50350;SDS011;36250;48.740;22.174;2022-12-29T08:54:40;19.70;;;12.63;;
50350;SDS011;36250;48.740;22.174;2022-12-29T08:57:05;23.85;;;14.00;;
50350;SDS011;36250;48.740;22.174;2022-12-29T08:59:30;18.38;;;10.82;;
50350;SDS011;36250;48.740;22.174;2022-12-29T09:01:56;16.35;;;9.48;;
50350;SDS011;36250;48.740;22.174;2022-12-29T09:04:21;20.23;;;10.15;;
50350;SDS011;36250;48.740;22.174;2022-12-29T09:06:48;20.02;;;9.95;;
50350;SDS011;36250;48.740;22.174;2022-12-29T09:09:14;31.05;;;17.95;;
50350;SDS011;36250;48.740;22.174;2022-12-29T09:11:41;33.17;;;20.42;;
50350;SDS011;36250;48.740;22.174;2022-12-29T09:14:06;23.83;;;15.07;;
50350;SDS011;36250;48.740;22.174;2022-12-29T09:16:32;17.65;;;12.50;;
50350;SDS011;36250;48.740;22.174;2022-12-29T09:18:58;20.55;;;13.38;;
50350;SDS011;36250;48.740;22.174;2022-12-29T09:21:24;23.13;;;15.05;;
50350;SDS011;36250;48.740;22.174;2022-12-29T09:23:49;23.77;;;14.25;;
50350;SDS011;36250;48.740;22.174;2022-12-29T09:26:15;18.40;;;12.75;;
50350;SDS011;36250;48.740;22.174;2022-12-29T09:28:41;21.95;;;13.32;;
50350;SDS011;36250;48.740;22.174;2022-12-29T09:31:06;18.00;;;11.50;;
50350;SDS011;36250;48.740;22.174;2022-12-29T09:33:32;17.73;;;11.80;;
50350;SDS011;36250;48.740;22.174;2022-12-29T09:36:00;19.77;;;12.02;;
50350;SDS011;36250;48.740;22.174;2022-12-29T09:38:26;23.23;;;13.65;;
50350;SDS011;36250;48.740;22.174;2022-12-29T09:40:56;25.17;;;11.32;;
50350;SDS011;36250;48.740;22.174;2022-12-29T09:48:55;23.20;;;13.63;;
50350;SDS011;36250;48.740;22.174;2022-12-29T09:51:40;19.73;;;11.05;;
50350;SDS011;36250;48.740;22.174;2022-12-29T09:57:04;20.80;;;12.27;;
50350;SDS011;36250;48.740;22.174;2022-12-29T09:59:39;23.97;;;12.70;;
50350;SDS011;36250;48.740;22.174;2022-12-29T10:04:54;21.50;;;12.57;;
50350;SDS011;36250;48.740;22.174;2022-12-29T10:13:07;20.27;;;11.43;;
50350;SDS011;36250;48.740;22.174;2022-12-29T10:18:17;19.30;;;13.07;;
50350;SDS011;36250;48.740;22.174;2022-12-29T10:21:01;16.33;;;10.07;;
50350;SDS011;36250;48.740;22.174;2022-12-29T10:23:48;19.67;;;12.73;;
50350;SDS011;36250;48.740;22.174;2022-12-29T10:26:18;16.67;;;10.90;;
50350;SDS011;36250;48.740;22.174;2022-12-29T10:29:02;16.77;;;10.80;;
50350;SDS011;36250;48.740;22.174;2022-12-29T10:31:39;23.10;;;12.93;;
50350;SDS011;36250;48.740;22.174;2022-12-29T10:34:16;20.60;;;12.27;;
50350;SDS011;36250;48.740;22.174;2022-12-29T10:36:48;30.85;;;14.60;;
50350;SDS011;36250;48.740;22.174;2022-12-29T10:44:33;21.27;;;12.70;;
50350;SDS011;36250;48.740;22.174;2022-12-29T10:47:00;20.08;;;12.50;;
50350;SDS011;36250;48.740;22.174;2022-12-29T10:49:30;17.25;;;9.30;;
50350;SDS011;36250;48.740;22.174;2022-12-29T10:51:58;15.13;;;10.15;;
50350;SDS011;36250;48.740;22.174;2022-12-29T10:59:53;15.63;;;10.52;;
50350;SDS011;36250;48.740;22.174;2022-12-29T11:07:23;19.98;;;13.55;;
50350;SDS011;36250;48.740;22.174;2022-12-29T11:09:51;24.48;;;13.50;;
50350;SDS011;36250;48.740;22.174;2022-12-29T11:14:47;21.50;;;12.93;;
50350;SDS011;36250;48.740;22.174;2022-12-29T11:17:24;19.55;;;13.38;;
50350;SDS011;36250;48.740;22.174;2022-12-29T11:19:50;23.83;;;13.43;;
50350;SDS011;36250;48.740;22.174;2022-12-29T11:22:23;25.90;;;14.73;;
50350;SDS011;36250;48.740;22.174;2022-12-29T11:24:51;26.98;;;17.17;;
50350;SDS011;36250;48.740;22.174;2022-12-29T11:27:18;27.83;;;15.90;;
50350;SDS011;36250;48.740;22.174;2022-12-29T11:29:51;15.70;;;9.95;;
50350;SDS011;36250;48.740;22.174;2022-12-29T11:32:21;20.25;;;11.20;;
50350;SDS011;36250;48.740;22.174;2022-12-29T11:34:51;16.60;;;12.00;;
50350;SDS011;36250;48.740;22.174;2022-12-29T11:37:18;17.02;;;12.27;;
50350;SDS011;36250;48.740;22.174;2022-12-29T11:45:06;17.60;;;10.02;;
50350;SDS011;36250;48.740;22.174;2022-12-29T11:47:35;19.70;;;10.13;;
50350;SDS011;36250;48.740;22.174;2022-12-29T11:50:04;15.10;;;10.52;;
50350;SDS011;36250;48.740;22.174;2022-12-29T11:52:34;16.37;;;9.57;;
50350;SDS011;36250;48.740;22.174;2022-12-29T11:55:04;16.70;;;11.30;;
50350;SDS011;36250;48.740;22.174;2022-12-29T11:57:32;16.05;;;10.90;;
50350;SDS011;36250;48.740;22.174;2022-12-29T11:59:59;15.40;;;10.68;;
50350;SDS011;36250;48.740;22.174;2022-12-29T12:05:37;18.35;;;10.77;;
50350;SDS011;36250;48.740;22.174;2022-12-29T12:10:45;16.38;;;11.55;;
50350;SDS011;36250;48.740;22.174;2022-12-29T12:13:19;17.65;;;10.48;;
50350;SDS011;36250;48.740;22.174;2022-12-29T12:18:53;25.80;;;13.70;;
50350;SDS011;36250;48.740;22.174;2022-12-29T12:26:48;27.13;;;15.48;;
50350;SDS011;36250;48.740;22.174;2022-12-29T12:29:25;23.02;;;12.98;;
50350;SDS011;36250;48.740;22.174;2022-12-29T12:32:01;29.27;;;16.55;;
50350;SDS011;36250;48.740;22.174;2022-12-29T12:34:40;20.25;;;11.60;;
50350;SDS011;36250;48.740;22.174;2022-12-29T12:42:47;17.35;;;11.18;;
50350;SDS011;36250;48.740;22.174;2022-12-29T12:45:30;19.20;;;12.77;;
50350;SDS011;36250;48.740;22.174;2022-12-29T12:56:16;23.65;;;15.10;;
50350;SDS011;36250;48.740;22.174;2022-12-29T12:59:09;33.77;;;19.23;;
50350;SDS011;36250;48.740;22.174;2022-12-29T13:07:10;34.83;;;21.05;;
50350;SDS011;36250;48.740;22.174;2022-12-29T13:13:05;42.70;;;25.50;;
50350;SDS011;36250;48.740;22.174;2022-12-29T13:20:53;45.78;;;24.00;;
50350;SDS011;36250;48.740;22.174;2022-12-29T13:31:20;32.88;;;21.42;;
50350;SDS011;36250;48.740;22.174;2022-12-29T13:36:51;54.05;;;29.65;;
50350;SDS011;36250;48.740;22.174;2022-12-29T13:41:56;41.67;;;25.95;;
50350;SDS011;36250;48.740;22.174;2022-12-29T13:44:23;45.53;;;25.50;;
50350;SDS011;36250;48.740;22.174;2022-12-29T13:47:07;41.22;;;24.63;;
50350;SDS011;36250;48.740;22.174;2022-12-29T13:49:49;54.55;;;32.08;;
50350;SDS011;36250;48.740;22.174;2022-12-29T13:52:21;67.78;;;38.00;;
50350;SDS011;36250;48.740;22.174;2022-12-29T14:03:53;26.83;;;18.23;;
50350;SDS011;36250;48.740;22.174;2022-12-29T14:06:26;49.08;;;28.38;;
50350;SDS011;36250;48.740;22.174;2022-12-29T14:09:05;51.45;;;28.35;;
50350;SDS011;36250;48.740;22.174;2022-12-29T14:11:51;28.60;;;17.05;;
50350;SDS011;36250;48.740;22.174;2022-12-29T14:14:24;40.35;;;26.67;;
50350;SDS011;36250;48.740;22.174;2022-12-29T14:16:53;29.85;;;18.17;;
50350;SDS011;36250;48.740;22.174;2022-12-29T14:19:20;31.92;;;19.60;;
50350;SDS011;36250;48.740;22.174;2022-12-29T14:21:53;36.55;;;23.90;;
50350;SDS011;36250;48.740;22.174;2022-12-29T14:26:53;31.35;;;17.10;;
50350;SDS011;36250;48.740;22.174;2022-12-29T14:31:46;295.75;;;130.95;;
50350;SDS011;36250;48.740;22.174;2022-12-29T14:44:45;93.40;;;49.35;;
50350;SDS011;36250;48.740;22.174;2022-12-29T14:47:11;83.70;;;46.42;;
50350;SDS011;36250;48.740;22.174;2022-12-29T14:49:44;74.78;;;44.83;;
50350;SDS011;36250;48.740;22.174;2022-12-29T14:52:15;76.03;;;45.65;;
50350;SDS011;36250;48.740;22.174;2022-12-29T14:54:48;86.75;;;50.65;;
50350;SDS011;36250;48.740;22.174;2022-12-29T14:57:39;86.22;;;51.65;;
50350;SDS011;36250;48.740;22.174;2022-12-29T15:02:40;76.63;;;44.47;;
50350;SDS011;36250;48.740;22.174;2022-12-29T15:05:20;101.53;;;55.53;;
50350;SDS011;36250;48.740;22.174;2022-12-29T15:07:52;92.53;;;53.72;;
50350;SDS011;36250;48.740;22.174;2022-12-29T15:10:18;89.85;;;56.30;;
50350;SDS011;36250;48.740;22.174;2022-12-29T15:12:54;101.93;;;58.40;;
50350;SDS011;36250;48.740;22.174;2022-12-29T15:15:21;117.95;;;67.43;;
50350;SDS011;36250;48.740;22.174;2022-12-29T15:17:51;124.32;;;72.90;;
50350;SDS011;36250;48.740;22.174;2022-12-29T15:22:48;129.73;;;84.22;;
50350;SDS011;36250;48.740;22.174;2022-12-29T15:25:18;125.60;;;77.93;;
50350;SDS011;36250;48.740;22.174;2022-12-29T15:30:49;129.45;;;75.65;;
50350;SDS011;36250;48.740;22.174;2022-12-29T15:33:21;115.18;;;68.28;;
50350;SDS011;36250;48.740;22.174;2022-12-29T15:35:51;120.25;;;71.85;;
50350;SDS011;36250;48.740;22.174;2022-12-29T15:38:23;110.70;;;67.80;;
50350;SDS011;36250;48.740;22.174;2022-12-29T15:41:00;100.63;;;59.75;;
50350;SDS011;36250;48.740;22.174;2022-12-29T15:45:59;98.22;;;56.50;;
50350;SDS011;36250;48.740;22.174;2022-12-29T15:48:26;83.40;;;49.33;;
50350;SDS011;36250;48.740;22.174;2022-12-29T15:50:51;94.75;;;55.22;;
50350;SDS011;36250;48.740;22.174;2022-12-29T15:53:24;93.55;;;54.13;;
50350;SDS011;36250;48.740;22.174;2022-12-29T15:56:00;101.13;;;56.03;;
50350;SDS011;36250;48.740;22.174;2022-12-29T15:58:31;115.95;;;64.47;;
50350;SDS011;36250;48.740;22.174;2022-12-29T16:01:15;128.75;;;71.63;;
50350;SDS011;36250;48.740;22.174;2022-12-29T16:06:25;131.60;;;69.43;;
50350;SDS011;36250;48.740;22.174;2022-12-29T16:08:57;127.18;;;70.95;;
50350;SDS011;36250;48.740;22.174;2022-12-29T16:11:32;103.82;;;54.40;;
50350;SDS011;36250;48.740;22.174;2022-12-29T16:14:01;83.57;;;45.08;;
50350;SDS011;36250;48.740;22.174;2022-12-29T16:16:31;89.07;;;48.17;;
50350;SDS011;36250;48.740;22.174;2022-12-29T16:19:09;83.32;;;44.47;;
50350;SDS011;36250;48.740;22.174;2022-12-29T16:21:49;57.03;;;30.83;;
50350;SDS011;36250;48.740;22.174;2022-12-29T16:24:16;42.67;;;23.50;;
50350;SDS011;36250;48.740;22.174;2022-12-29T16:26:49;29.95;;;17.27;;
50350;SDS011;36250;48.740;22.174;2022-12-29T16:29:19;25.85;;;14.93;;
50350;SDS011;36250;48.740;22.174;2022-12-29T16:31:56;20.55;;;13.27;;
50350;SDS011;36250;48.740;22.174;2022-12-29T16:34:31;16.10;;;10.00;;
50350;SDS011;36250;48.740;22.174;2022-12-29T16:39:54;16.33;;;10.32;;
50350;SDS011;36250;48.740;22.174;2022-12-29T16:47:44;22.60;;;13.02;;
50350;SDS011;36250;48.740;22.174;2022-12-29T16:50:12;20.75;;;12.25;;
50350;SDS011;36250;48.740;22.174;2022-12-29T16:52:41;20.55;;;11.15;;
50350;SDS011;36250;48.740;22.174;2022-12-29T16:55:14;22.75;;;11.77;;
50350;SDS011;36250;48.740;22.174;2022-12-29T16:57:41;18.98;;;10.48;;
50350;SDS011;36250;48.740;22.174;2022-12-29T17:00:22;16.73;;;10.52;;
50350;SDS011;36250;48.740;22.174;2022-12-29T17:02:50;21.58;;;13.43;;
50350;SDS011;36250;48.740;22.174;2022-12-29T17:05:19;27.05;;;14.82;;
50350;SDS011;36250;48.740;22.174;2022-12-29T17:07:46;27.90;;;15.20;;
50350;SDS011;36250;48.740;22.174;2022-12-29T17:10:11;31.88;;;18.40;;
50350;SDS011;36250;48.740;22.174;2022-12-29T17:12:40;24.92;;;15.75;;
50350;SDS011;36250;48.740;22.174;2022-12-29T17:17:51;28.48;;;17.67;;
50350;SDS011;36250;48.740;22.174;2022-12-29T17:20:24;37.95;;;22.80;;
50350;SDS011;36250;48.740;22.174;2022-12-29T17:22:51;42.22;;;22.63;;